Time;durP1;ratioP1;P1;durP2;ratioP2;P2;SDS_P1;SDS_P2;PMS_P1;PMS_P2;Temp;Humidity;BMP_temperature;BMP_pressure;BME280_temperature;BME280_humidity;BME280_pressure;Samples;Min_cycle;Max_cycle;Signal;HPM_P1;HPM_P2
2023/05/31 00:02:24;;;;;;;3.15;2.53;;;22.40;63.40;;;;;;6215554;23;20116;-81
2023/05/31 00:04:50;;;;;;;6.20;2.55;;;22.40;63.40;;;;;;6215776;23;20004;-81
2023/05/31 00:07:15;;;;;;;3.65;2.75;;;22.50;63.90;;;;;;6215908;23;20004;-81
2023/05/31 00:09:41;;;;;;;3.40;2.60;;;22.40;63.60;;;;;;6215928;23;20759;-81
2023/05/31 00:12:07;;;;;;;6.10;3.20;;;22.40;63.70;;;;;;6215657;23;20009;-81
2023/05/31 00:14:33;;;;;;;5.63;3.30;;;22.30;64.00;;;;;;6215985;23;20430;-81
2023/05/31 00:16:59;;;;;;;3.22;2.50;;;22.30;63.90;;;;;;6215641;23;20000;-81
2023/05/31 00:19:24;;;;;;;4.75;2.60;;;22.30;63.90;;;;;;6189269;23;20004;-81
2023/05/31 00:21:50;;;;;;;3.83;2.55;;;22.20;64.10;;;;;;6215441;23;20008;-81
2023/05/31 00:24:16;;;;;;;3.42;2.47;;;22.20;63.90;;;;;;6215407;23;20028;-81
2023/05/31 00:26:42;;;;;;;3.22;2.38;;;22.20;64.10;;;;;;6214946;23;20407;-81
2023/05/31 00:29:08;;;;;;;3.47;2.67;;;22.20;64.10;;;;;;6215857;23;19996;-81
2023/05/31 00:31:33;;;;;;;6.60;2.53;;;22.10;64.10;;;;;;6215433;23;20423;-81
2023/05/31 00:33:59;;;;;;;3.38;2.08;;;22.10;64.00;;;;;;6216123;23;20004;-80
2023/05/31 00:36:25;;;;;;;2.92;2.20;;;22.10;64.10;;;;;;6215149;23;20007;-80
2023/05/31 00:38:50;;;;;;;2.92;2.17;;;22.10;64.10;;;;;;6215772;23;20005;-80
2023/05/31 00:41:17;;;;;;;3.05;2.35;;;22.10;64.00;;;;;;6215170;23;20025;-80
2023/05/31 00:43:43;;;;;;;5.88;2.85;;;22.10;64.30;;;;;;6215294;23;20431;-80
2023/05/31 00:46:19;;;;;;;4.78;2.30;;;22.10;64.20;;;;;;6188610;23;20005;-81
2023/05/31 00:48:45;;;;;;;2.28;1.80;;;22.10;64.20;;;;;;6215356;23;20315;-81
2023/05/31 00:51:12;;;;;;;4.07;2.50;;;22.00;63.80;;;;;;6215185;23;20031;-81
2023/05/31 00:53:38;;;;;;;2.42;2.05;;;22.00;63.90;;;;;;6215627;23;20000;-81
2023/05/31 00:56:04;;;;;;;3.20;2.25;;;21.90;64.00;;;;;;6215201;23;20390;-81
2023/05/31 00:58:34;;;;;;;3.75;2.65;;;22.00;63.90;;;;;;6215323;23;20004;-81
2023/05/31 01:01:00;;;;;;;6.57;2.63;;;21.80;64.20;;;;;;6215322;23;20024;-80
2023/05/31 01:03:26;;;;;;;3.33;2.50;;;21.80;64.20;;;;;;6214706;23;20032;-80
2023/05/31 01:05:52;;;;;;;2.33;1.83;;;21.80;64.00;;;;;;6214973;23;20737;-81
2023/05/31 01:08:19;;;;;;;2.85;2.10;;;21.80;64.00;;;;;;6215526;23;20378;-81
2023/05/31 01:10:45;;;;;;;3.28;2.00;;;21.80;63.90;;;;;;6214881;23;20008;-82
2023/05/31 01:13:38;;;;;;;3.13;2.17;;;21.80;64.00;;;;;;6187460;23;20011;-82
2023/05/31 01:16:17;;;;;;;4.22;2.67;;;21.90;64.00;;;;;;6214636;23;20000;-82
2023/05/31 01:19:02;;;;;;;3.67;2.28;;;21.80;63.90;;;;;;6214859;23;20075;-82
2023/05/31 01:21:51;;;;;;;3.72;2.05;;;21.80;63.80;;;;;;6214586;23;20511;-82
2023/05/31 01:24:30;;;;;;;4.65;2.40;;;21.80;63.80;;;;;;6214843;23;20001;-82
2023/05/31 01:27:00;;;;;;;3.38;2.50;;;21.70;63.70;;;;;;6214011;23;20008;-81
2023/05/31 01:29:27;;;;;;;2.17;1.92;;;21.70;63.80;;;;;;6214894;23;20005;-81
2023/05/31 01:31:54;;;;;;;3.25;1.80;;;21.70;63.80;;;;;;6214910;23;20004;-81
2023/05/31 01:34:20;;;;;;;3.22;1.83;;;21.70;63.80;;;;;;6215105;23;20084;-81
2023/05/31 01:36:46;;;;;;;2.67;1.92;;;21.70;63.80;;;;;;6214939;23;20016;-81
2023/05/31 01:39:12;;;;;;;2.33;2.10;;;21.80;63.70;;;;;;6215281;23;20007;-81
2023/05/31 01:41:43;;;;;;;4.72;1.83;;;21.70;63.70;;;;;;6214909;23;20000;-81
2023/05/31 01:44:10;;;;;;;2.70;1.88;;;21.70;63.80;;;;;;6215305;23;20028;-82
2023/05/31 01:46:38;;;;;;;2.55;2.28;;;21.70;63.50;;;;;;6214414;23;20005;-82
2023/05/31 01:49:04;;;;;;;3.13;2.10;;;21.80;63.60;;;;;;6214741;23;20001;-82
2023/05/31 01:51:32;;;;;;;3.83;2.50;;;21.80;63.50;;;;;;6214583;23;20000;-82
2023/05/31 01:53:58;;;;;;;2.90;2.15;;;21.80;63.60;;;;;;6215136;23;20027;-82
2023/05/31 01:56:25;;;;;;;2.88;2.28;;;21.80;63.50;;;;;;6213881;23;20404;-81
2023/05/31 01:58:51;;;;;;;5.72;1.92;;;21.80;63.30;;;;;;6213794;23;20342;-81
2023/05/31 02:01:19;;;;;;;3.47;2.10;;;21.80;63.40;;;;;;6214061;23;20001;-81
2023/05/31 02:03:44;;;;;;;2.75;2.13;;;21.90;63.60;;;;;;6214693;23;20008;-81
2023/05/31 02:06:12;;;;;;;3.35;1.90;;;21.90;63.10;;;;;;6213545;23;20008;-81
2023/05/31 02:08:39;;;;;;;5.13;2.28;;;21.80;63.20;;;;;;6214453;23;20124;-81
2023/05/31 02:11:05;;;;;;;4.22;2.42;;;21.80;63.40;;;;;;6213835;23;20067;-81
2023/05/31 02:13:31;;;;;;;2.38;1.70;;;21.80;63.40;;;;;;6187732;23;20005;-81
2023/05/31 02:15:57;;;;;;;3.28;2.30;;;21.80;63.40;;;;;;6214037;23;20031;-81
2023/05/31 02:18:26;;;;;;;3.15;1.88;;;21.70;63.30;;;;;;6213785;23;20011;-81
2023/05/31 02:20:52;;;;;;;3.50;1.85;;;21.80;63.30;;;;;;6215212;23;20034;-81
2023/05/31 02:23:18;;;;;;;4.30;2.00;;;21.80;63.30;;;;;;6215065;23;20005;-81
2023/05/31 02:25:48;;;;;;;3.78;2.22;;;21.80;63.20;;;;;;6214183;23;20132;-80
2023/05/31 02:28:14;;;;;;;2.95;2.20;;;21.80;63.20;;;;;;6213401;23;20004;-81
2023/05/31 02:30:40;;;;;;;2.65;2.00;;;21.90;63.30;;;;;;6213806;23;20040;-81
2023/05/31 02:33:07;;;;;;;4.32;2.42;;;21.90;63.30;;;;;;6188508;23;20083;-81
2023/05/31 02:35:33;;;;;;;2.72;1.85;;;21.90;62.70;;;;;;6214015;23;20011;-81
2023/05/31 02:37:59;;;;;;;2.80;2.05;;;22.00;62.70;;;;;;6187154;23;20044;-81
2023/05/31 02:40:24;;;;;;;2.78;2.28;;;22.00;62.90;;;;;;6214082;23;20051;-80
2023/05/31 02:42:50;;;;;;;3.60;2.35;;;22.00;62.80;;;;;;6214137;23;20012;-81
2023/05/31 02:45:16;;;;;;;2.80;2.10;;;22.00;62.70;;;;;;6214345;23;20011;-81
2023/05/31 02:47:42;;;;;;;2.95;1.98;;;22.00;62.70;;;;;;6214241;23;20059;-81
2023/05/31 02:50:09;;;;;;;4.53;2.08;;;21.90;62.90;;;;;;6213657;23;20080;-81
2023/05/31 02:52:35;;;;;;;2.72;2.03;;;21.90;63.00;;;;;;6214067;23;20028;-81
2023/05/31 02:55:01;;;;;;;3.95;2.30;;;21.90;63.20;;;;;;6213492;23;20026;-81
2023/05/31 02:57:27;;;;;;;3.30;2.22;;;21.90;62.90;;;;;;6213815;23;20000;-81
2023/05/31 02:59:57;;;;;;;5.93;2.13;;;21.80;62.90;;;;;;6213817;23;20035;-81
2023/05/31 03:02:24;;;;;;;4.07;2.20;;;21.80;63.00;;;;;;6214304;23;20095;-81
2023/05/31 03:04:50;;;;;;;3.25;2.15;;;21.80;63.00;;;;;;6215333;23;20039;-81
2023/05/31 03:07:16;;;;;;;2.60;2.17;;;21.80;63.10;;;;;;6215694;23;20000;-81
2023/05/31 03:09:42;;;;;;;3.72;2.17;;;21.80;63.20;;;;;;6215979;23;20007;-81
2023/05/31 03:12:08;;;;;;;2.75;2.15;;;21.80;63.30;;;;;;6198940;23;20036;-81
2023/05/31 03:14:34;;;;;;;3.40;2.20;;;21.70;63.30;;;;;;6186103;23;20029;-81
2023/05/31 03:17:00;;;;;;;4.28;2.45;;;21.70;63.30;;;;;;6184488;23;20005;-81
2023/05/31 03:19:26;;;;;;;3.78;2.00;;;21.60;63.40;;;;;;6185667;23;20039;-81
2023/05/31 03:21:52;;;;;;;3.15;2.42;;;21.60;63.20;;;;;;6186226;23;20005;-81
2023/05/31 03:24:18;;;;;;;2.78;2.25;;;21.60;63.40;;;;;;6186286;23;20036;-81
2023/05/31 03:26:43;;;;;;;2.67;2.05;;;21.60;63.40;;;;;;6184512;23;20048;-80
2023/05/31 03:29:10;;;;;;;2.65;2.08;;;21.60;63.30;;;;;;6185923;23;20353;-80
2023/05/31 03:31:36;;;;;;;3.65;2.50;;;21.60;63.40;;;;;;6185582;23;20016;-80
2023/05/31 03:34:02;;;;;;;3.03;2.10;;;21.60;63.30;;;;;;6159202;23;20080;-80
2023/05/31 03:36:27;;;;;;;5.07;2.00;;;21.60;63.60;;;;;;6185214;23;20005;-80
2023/05/31 03:38:53;;;;;;;3.90;2.58;;;21.60;63.40;;;;;;6185888;23;20025;-81
2023/05/31 03:41:18;;;;;;;3.38;2.13;;;21.60;63.60;;;;;;6184910;23;20005;-81
2023/05/31 03:43:44;;;;;;;2.78;2.20;;;21.60;63.50;;;;;;6185676;23;20001;-80
2023/05/31 03:46:10;;;;;;;3.25;2.50;;;21.60;63.50;;;;;;6185933;23;20438;-80
2023/05/31 03:48:35;;;;;;;2.92;2.17;;;21.60;63.60;;;;;;6185174;23;20008;-81
2023/05/31 03:51:01;;;;;;;2.13;1.67;;;21.60;63.70;;;;;;6157871;23;20005;-81
2023/05/31 03:53:27;;;;;;;2.42;2.13;;;21.60;63.60;;;;;;6186112;23;20408;-81
2023/05/31 03:55:53;;;;;;;3.33;2.25;;;21.60;63.80;;;;;;6185344;23;20005;-82
2023/05/31 03:58:19;;;;;;;3.88;2.38;;;21.60;63.70;;;;;;6186095;23;20084;-81
2023/05/31 04:00:44;;;;;;;3.08;2.05;;;21.60;64.00;;;;;;6185187;23;20033;-81
2023/05/31 04:03:13;;;;;;;4.32;2.45;;;21.70;64.00;;;;;;6185674;23;20441;-81
2023/05/31 04:05:40;;;;;;;2.70;2.45;;;21.70;64.20;;;;;;6159069;23;20008;-81
2023/05/31 04:08:05;;;;;;;3.97;2.63;;;21.70;64.00;;;;;;6185604;23;20490;-81
2023/05/31 04:10:32;;;;;;;2.58;2.00;;;21.70;64.10;;;;;;6185589;23;19997;-81
2023/05/31 04:12:58;;;;;;;2.63;2.00;;;21.60;64.00;;;;;;6185360;23;20328;-81
2023/05/31 04:15:24;;;;;;;3.63;2.20;;;21.60;64.10;;;;;;6184448;23;20008;-81
2023/05/31 04:17:49;;;;;;;2.80;2.28;;;21.60;64.00;;;;;;6185272;23;20141;-81
2023/05/31 04:20:16;;;;;;;4.68;2.08;;;21.70;64.00;;;;;;6185581;23;20490;-80
2023/05/31 04:22:42;;;;;;;2.20;1.80;;;21.60;63.80;;;;;;6186054;23;20001;-80
2023/05/31 04:25:09;;;;;;;2.92;2.40;;;21.60;63.80;;;;;;6184993;23;20001;-80
2023/05/31 04:27:38;;;;;;;4.03;2.40;;;21.60;63.90;;;;;;6184574;23;20005;-85
2023/05/31 04:30:05;;;;;;;2.88;1.83;;;21.60;63.90;;;;;;6185090;23;20051;-81
2023/05/31 04:32:34;;;;;;;3.10;2.45;;;21.70;64.50;;;;;;6185135;23;20012;-81
2023/05/31 04:35:07;;;;;;;2.75;2.33;;;21.60;64.00;;;;;;6185084;23;20001;-81
2023/05/31 04:37:34;;;;;;;5.07;2.58;;;21.60;64.10;;;;;;6185363;23;20001;-81
2023/05/31 04:40:00;;;;;;;4.57;2.70;;;21.60;64.00;;;;;;6184889;23;20005;-82
2023/05/31 04:42:28;;;;;;;2.80;2.08;;;21.60;64.10;;;;;;6185387;23;20076;-81
2023/05/31 04:44:57;;;;;;;3.90;2.28;;;21.60;64.10;;;;;;6184586;23;20001;-82
2023/05/31 04:47:30;;;;;;;13.65;2.70;;;21.60;64.10;;;;;;6158856;23;20059;-79
2023/05/31 04:49:57;;;;;;;4.00;2.30;;;21.70;64.60;;;;;;6157667;23;20008;-80
2023/05/31 04:52:29;;;;;;;2.47;2.17;;;21.70;64.40;;;;;;6183661;23;20068;-80
2023/05/31 04:54:55;;;;;;;2.72;2.40;;;21.80;64.50;;;;;;6184268;23;20005;-80
2023/05/31 04:57:22;;;;;;;4.60;2.70;;;21.80;64.30;;;;;;6183763;23;20001;-80
2023/05/31 04:59:49;;;;;;;3.22;2.40;;;21.80;64.10;;;;;;6184965;23;20008;-80
2023/05/31 05:02:17;;;;;;;3.05;2.50;;;21.90;64.30;;;;;;6184694;23;20028;-79
2023/05/31 05:04:42;;;;;;;2.75;2.35;;;21.90;64.50;;;;;;6184876;23;20345;-79
2023/05/31 05:07:08;;;;;;;3.25;2.40;;;21.90;64.20;;;;;;6183853;23;20001;-78
2023/05/31 05:09:33;;;;;;;4.97;2.35;;;21.90;64.50;;;;;;6184359;23;20429;-78
2023/05/31 05:12:00;;;;;;;3.97;2.47;;;22.00;64.40;;;;;;6184842;23;20422;-78
2023/05/31 05:14:25;;;;;;;3.88;2.58;;;22.10;64.80;;;;;;6158161;23;20549;-78
2023/05/31 05:16:51;;;;;;;4.55;2.47;;;22.10;64.90;;;;;;6183337;23;20001;-78
2023/05/31 05:19:17;;;;;;;4.57;2.55;;;22.10;64.80;;;;;;6181876;23;20008;-80
2023/05/31 05:21:42;;;;;;;5.10;3.08;;;22.10;64.90;;;;;;6183863;23;20289;-80
2023/05/31 05:24:08;;;;;;;3.53;2.65;;;22.20;64.90;;;;;;6184603;23;20035;-80
2023/05/31 05:26:34;;;;;;;3.83;2.60;;;22.20;64.80;;;;;;6183170;23;20480;-80
2023/05/31 05:29:00;;;;;;;4.32;2.95;;;22.20;65.10;;;;;;6158120;23;20009;-77
2023/05/31 05:31:26;;;;;;;5.38;2.78;;;22.30;65.10;;;;;;6183972;23;20011;-77
2023/05/31 05:33:51;;;;;;;4.60;2.47;;;22.30;65.40;;;;;;6183578;23;20004;-78
2023/05/31 05:36:17;;;;;;;3.25;2.17;;;22.30;65.00;;;;;;6183575;23;20012;-78
2023/05/31 05:38:42;;;;;;;4.05;2.53;;;22.30;64.80;;;;;;6184065;23;20033;-77
2023/05/31 05:41:12;;;;;;;3.65;2.35;;;22.40;64.60;;;;;;6185199;23;20125;-78
2023/05/31 05:43:38;;;;;;;5.15;2.50;;;22.40;64.70;;;;;;6185479;23;20004;-81
2023/05/31 05:46:04;;;;;;;6.35;2.72;;;22.40;64.60;;;;;;6183749;23;20005;-78
2023/05/31 05:48:30;;;;;;;7.38;3.45;;;22.40;64.50;;;;;;6184605;23;20032;-78
2023/05/31 05:50:56;;;;;;;5.65;2.65;;;22.50;64.40;;;;;;6184647;23;20028;-78
2023/05/31 05:53:21;;;;;;;3.15;2.47;;;22.50;64.50;;;;;;6184931;23;19997;-78
2023/05/31 05:55:54;;;;;;;5.90;2.30;;;22.50;64.90;;;;;;6184920;23;20008;-82
2023/05/31 05:58:20;;;;;;;8.35;3.25;;;22.60;64.90;;;;;;6185201;23;20032;-78
2023/05/31 06:00:49;;;;;;;4.70;2.60;;;22.60;64.90;;;;;;6184444;23;20088;-78
2023/05/31 06:03:15;;;;;;;4.60;2.80;;;22.60;64.90;;;;;;6158365;23;20032;-78
2023/05/31 06:05:44;;;;;;;6.18;2.75;;;22.70;65.10;;;;;;6184475;23;20031;-79
2023/05/31 06:08:10;;;;;;;4.10;2.95;;;22.70;65.40;;;;;;6184907;23;20044;-80
2023/05/31 06:10:36;;;;;;;6.00;3.03;;;22.70;64.70;;;;;;6185009;23;20085;-76
2023/05/31 06:13:02;;;;;;;4.53;2.80;;;22.70;65.00;;;;;;6185439;23;20064;-80
2023/05/31 06:15:28;;;;;;;5.18;2.80;;;22.80;65.30;;;;;;6185230;23;20005;-79
2023/05/31 06:17:54;;;;;;;3.53;2.70;;;22.80;64.80;;;;;;6183862;23;20013;-80
2023/05/31 06:20:21;;;;;;;5.93;2.45;;;22.80;64.70;;;;;;6182470;23;20576;-78
2023/05/31 06:22:49;;;;;;;5.20;2.88;;;22.80;64.90;;;;;;6183130;23;20753;-78
2023/05/31 06:25:16;;;;;;;3.00;2.70;;;22.80;65.20;;;;;;6183413;23;20000;-78
2023/05/31 06:27:42;;;;;;;4.32;2.67;;;22.80;65.20;;;;;;6181110;23;20008;-88
2023/05/31 06:30:09;;;;;;;6.50;2.78;;;22.80;65.20;;;;;;6156119;23;20378;-78
2023/05/31 06:32:36;;;;;;;4.53;2.50;;;22.90;64.20;;;;;;6154540;23;20446;-78
2023/05/31 06:35:01;;;;;;;5.28;2.65;;;22.90;64.70;;;;;;6180994;23;20001;-78
2023/05/31 06:37:27;;;;;;;6.10;2.70;;;22.90;64.40;;;;;;6180357;23;20024;-78
2023/05/31 06:39:56;;;;;;;4.32;2.40;;;22.90;63.90;;;;;;6182977;23;20025;-78
2023/05/31 06:42:22;;;;;;;3.97;2.47;;;23.00;63.70;;;;;;6157843;23;20016;-79
2023/05/31 06:44:48;;;;;;;3.42;2.53;;;23.10;63.50;;;;;;6183258;23;20001;-80
2023/05/31 06:47:14;;;;;;;3.63;2.67;;;23.10;63.50;;;;;;6183307;23;20016;-79
2023/05/31 06:49:40;;;;;;;4.65;3.00;;;23.10;63.40;;;;;;6181656;23;20768;-80
2023/05/31 06:52:06;;;;;;;4.03;3.08;;;23.20;63.30;;;;;;6158869;23;20005;-80
2023/05/31 06:54:38;;;;;;;4.85;2.40;;;23.30;63.20;;;;;;6185705;23;20492;-80
2023/05/31 06:57:05;;;;;;;3.22;2.83;;;23.40;62.90;;;;;;6185166;23;20045;-81
2023/05/31 06:59:33;;;;;;;3.45;2.50;;;23.40;62.20;;;;;;6184824;23;20020;-81
2023/05/31 07:01:59;;;;;;;4.03;2.78;;;23.50;62.30;;;;;;6158477;23;20060;-81
2023/05/31 07:04:25;;;;;;;4.85;3.10;;;23.60;62.20;;;;;;6184130;23;19997;-81
2023/05/31 07:06:51;;;;;;;7.55;4.40;;;23.70;61.70;;;;;;6185241;23;20005;-79
2023/05/31 07:09:16;;;;;;;6.70;3.10;;;23.70;60.00;;;;;;6187128;23;20052;-79
2023/05/31 07:11:42;;;;;;;4.30;2.88;;;23.80;60.60;;;;;;6186864;23;20020;-78
2023/05/31 07:14:09;;;;;;;6.65;3.10;;;23.80;60.80;;;;;;6185772;23;20025;-78
2023/05/31 07:16:35;;;;;;;4.20;3.08;;;23.90;60.70;;;;;;6182255;23;20139;-79
2023/05/31 07:19:05;;;;;;;4.38;2.88;;;24.00;60.40;;;;;;6158477;23;20148;-79
2023/05/31 07:21:31;;;;;;;2.92;2.40;;;24.00;60.10;;;;;;6184490;23;20482;-79
2023/05/31 07:23:56;;;;;;;4.45;3.00;;;24.10;59.60;;;;;;6159519;23;20476;-79
2023/05/31 07:26:23;;;;;;;4.63;2.90;;;24.10;59.30;;;;;;6159248;23;20039;-78
2023/05/31 07:28:52;;;;;;;4.78;2.65;;;24.20;58.70;;;;;;6185472;23;20028;-81
2023/05/31 07:31:20;;;;;;;6.28;3.10;;;24.20;58.60;;;;;;6159446;23;20005;-82
2023/05/31 07:33:46;;;;;;;6.00;2.67;;;24.30;59.00;;;;;;6186118;23;20424;-81
2023/05/31 07:36:12;;;;;;;4.30;2.95;;;24.30;58.00;;;;;;6159374;23;20032;-81
2023/05/31 07:38:38;;;;;;;5.15;2.95;;;24.40;58.20;;;;;;6185570;23;20581;-82
2023/05/31 07:41:03;;;;;;;5.22;2.60;;;24.50;57.90;;;;;;6158845;23;20084;-81
2023/05/31 07:43:30;;;;;;;5.15;2.90;;;24.50;57.60;;;;;;6185012;23;20001;-82
2023/05/31 07:45:59;;;;;;;4.28;2.70;;;24.60;57.60;;;;;;6185214;23;20048;-81
2023/05/31 07:48:25;;;;;;;7.78;2.67;;;24.60;57.40;;;;;;6185499;23;20005;-81
2023/05/31 07:50:51;;;;;;;3.20;2.75;;;24.70;57.90;;;;;;6158872;23;20032;-81
2023/05/31 07:53:17;;;;;;;5.20;2.92;;;24.80;57.40;;;;;;6186014;23;20001;-81
2023/05/31 07:55:44;;;;;;;3.50;2.67;;;24.80;56.90;;;;;;6160202;23;20037;-81
2023/05/31 07:58:11;;;;;;;6.47;3.00;;;24.80;56.40;;;;;;6186612;23;20399;-81
2023/05/31 08:00:40;;;;;;;5.43;2.83;;;24.90;56.80;;;;;;6186451;23;20392;-82
2023/05/31 08:03:05;;;;;;;5.20;2.55;;;24.90;56.70;;;;;;6186642;23;20076;-81
2023/05/31 08:05:32;;;;;;;5.50;2.92;;;25.00;56.60;;;;;;6186555;23;20059;-81
2023/05/31 08:07:59;;;;;;;4.38;2.53;;;25.10;56.50;;;;;;6158775;23;20060;-78
2023/05/31 08:10:24;;;;;;;6.47;2.97;;;25.10;55.80;;;;;;6184912;23;20029;-78
2023/05/31 08:12:50;;;;;;;5.95;3.25;;;25.20;55.60;;;;;;6184712;23;20722;-78
2023/05/31 08:15:16;;;;;;;5.22;2.63;;;25.20;55.40;;;;;;6186131;23;20443;-78
2023/05/31 08:17:43;;;;;;;3.50;2.13;;;25.20;55.20;;;;;;6186092;23;20145;-79
2023/05/31 08:20:13;;;;;;;3.33;2.42;;;25.20;55.00;;;;;;6159002;23;20023;-77
2023/05/31 08:22:42;;;;;;;3.22;2.33;;;25.30;55.30;;;;;;6185706;23;20000;-81
2023/05/31 08:25:08;;;;;;;4.33;2.40;;;25.40;54.70;;;;;;6185635;23;20056;-79
2023/05/31 08:27:34;;;;;;;4.82;2.80;;;25.40;53.70;;;;;;6184964;23;20005;-78
2023/05/31 08:30:00;;;;;;;4.40;2.38;;;25.50;51.80;;;;;;6159103;23;20052;-78
2023/05/31 08:32:25;;;;;;;3.40;2.30;;;25.50;52.00;;;;;;6185523;23;20001;-78
2023/05/31 08:34:51;;;;;;;4.13;2.42;;;25.50;51.10;;;;;;6185431;23;20001;-78
2023/05/31 08:37:17;;;;;;;4.13;2.05;;;25.60;51.90;;;;;;6185255;23;20001;-78
2023/05/31 08:39:42;;;;;;;3.53;2.58;;;25.60;52.40;;;;;;6185195;23;20487;-78
2023/05/31 08:42:18;;;;;;;3.05;2.38;;;25.70;51.60;;;;;;6184994;23;20059;-79
2023/05/31 08:44:44;;;;;;;4.22;2.13;;;25.80;51.70;;;;;;6185659;23;20030;-79
2023/05/31 08:47:19;;;;;;;3.42;2.50;;;25.90;51.50;;;;;;6185392;23;20024;-79
2023/05/31 08:49:46;;;;;;;22.13;15.00;;;26.00;51.40;;;;;;6185927;23;20332;-79
2023/05/31 08:52:12;;;;;;;8.45;6.38;;;26.10;51.80;;;;;;6185930;23;20025;-79
2023/05/31 08:54:39;;;;;;;11.63;7.88;;;26.20;51.10;;;;;;6185574;23;20001;-78
2023/05/31 08:57:06;;;;;;;4.88;3.08;;;26.10;51.10;;;;;;6184488;23;20446;-79
2023/05/31 08:59:36;;;;;;;3.47;2.28;;;26.20;51.10;;;;;;6185504;23;20087;-79
2023/05/31 09:02:03;;;;;;;5.07;2.42;;;26.30;50.50;;;;;;6184643;23;20009;-79
2023/05/31 09:04:30;;;;;;;2.72;2.20;;;26.30;50.70;;;;;;6159132;23;20376;-79
2023/05/31 09:06:55;;;;;;;3.20;2.20;;;26.40;51.10;;;;;;6158032;23;20005;-79
2023/05/31 09:09:21;;;;;;;12.95;2.67;;;26.50;51.30;;;;;;6185457;23;20048;-79
2023/05/31 09:11:47;;;;;;;3.30;2.30;;;26.60;49.90;;;;;;6184944;23;20013;-78
2023/05/31 09:14:13;;;;;;;2.55;1.88;;;26.60;50.10;;;;;;6184915;23;19997;-81
2023/05/31 09:16:39;;;;;;;2.78;2.03;;;26.70;49.30;;;;;;6184812;23;20097;-81
2023/05/31 09:19:05;;;;;;;4.78;2.65;;;26.60;48.80;;;;;;6157328;23;20001;-80
2023/05/31 09:21:42;;;;;;;3.67;2.22;;;26.70;49.80;;;;;;6184545;23;20084;-80
2023/05/31 09:24:10;;;;;;;4.47;2.30;;;26.80;50.00;;;;;;6157946;23;20301;-80
2023/05/31 09:26:47;;;;;;;2.40;2.10;;;26.90;50.00;;;;;;6185226;23;20064;-81
2023/05/31 09:29:12;;;;;;;7.57;2.33;;;27.00;50.00;;;;;;6185695;23;20081;-81
2023/05/31 09:31:38;;;;;;;5.53;2.35;;;27.00;49.50;;;;;;6186182;23;20025;-81
2023/05/31 09:34:04;;;;;;;4.53;2.03;;;27.10;49.60;;;;;;6185795;23;20039;-81
2023/05/31 09:36:31;;;;;;;5.65;2.70;;;27.20;49.00;;;;;;6185796;23;20008;-81
2023/05/31 09:39:03;;;;;;;4.00;2.70;;;27.20;49.20;;;;;;6185657;23;20004;-81
2023/05/31 09:41:30;;;;;;;3.40;2.40;;;27.20;50.00;;;;;;6185265;23;20076;-81
2023/05/31 09:43:56;;;;;;;4.82;2.30;;;27.30;49.50;;;;;;6185690;23;20001;-81
2023/05/31 09:46:22;;;;;;;4.57;2.60;;;27.40;49.80;;;;;;6185832;23;20012;-81
2023/05/31 09:48:59;;;;;;;4.45;2.17;;;27.50;49.70;;;;;;6184962;23;20008;-81
2023/05/31 09:51:25;;;;;;;3.03;2.17;;;27.60;46.60;;;;;;6185067;23;20001;-81
2023/05/31 09:53:55;;;;;;;5.32;2.22;;;27.60;47.90;;;;;;6158831;23;20031;-81
2023/05/31 09:56:21;;;;;;;;;;;27.70;47.50;;;;;;6186698;23;20195;-81
2023/05/31 09:58:48;;;;;;;7.60;2.45;;;27.70;47.10;;;;;;6186166;23;20309;-81
2023/05/31 10:01:18;;;;;;;3.67;2.33;;;27.80;45.90;;;;;;6185586;23;20005;-81
2023/05/31 10:03:44;;;;;;;;;;;27.80;45.90;;;;;;6186314;23;20005;-81
2023/05/31 10:06:11;;;;;;;3.50;2.10;;;27.90;46.20;;;;;;6185333;23;20071;-81
2023/05/31 10:08:37;;;;;;;4.10;2.60;;;28.00;46.90;;;;;;6159354;23;20092;-81
2023/05/31 10:11:04;;;;;;;4.22;2.47;;;28.10;47.00;;;;;;6158437;23;20056;-81
2023/05/31 10:13:31;;;;;;;4.25;2.20;;;28.20;46.80;;;;;;6185317;23;20001;-81
2023/05/31 10:16:04;;;;;;;5.63;2.90;;;28.30;46.50;;;;;;6161044;23;20044;-81
2023/05/31 10:18:32;;;;;;;3.95;2.67;;;28.30;47.00;;;;;;6187630;23;20320;-81
2023/05/31 10:21:02;;;;;;;5.85;3.05;;;28.40;46.70;;;;;;6186672;23;20001;-81
2023/05/31 10:23:29;;;;;;;4.10;2.50;;;28.50;46.60;;;;;;6186882;23;20012;-81
2023/05/31 10:26:08;;;;;;;4.93;2.90;;;28.60;46.60;;;;;;6187209;23;20008;-80
2023/05/31 10:28:44;;;;;;;3.15;2.60;;;28.60;46.60;;;;;;6187416;23;19997;-80
2023/05/31 10:31:11;;;;;;;3.28;2.70;;;28.80;47.00;;;;;;6186314;23;19997;-80
2023/05/31 10:33:43;;;;;;;3.47;2.47;;;28.80;46.20;;;;;;6186939;23;20434;-80
2023/05/31 10:36:09;;;;;;;6.10;2.95;;;28.90;47.50;;;;;;6186263;23;20001;-80
2023/05/31 10:39:08;;;;;;;3.38;2.40;;;29.00;46.50;;;;;;6186321;23;20005;-80
2023/05/31 10:41:43;;;;;;;5.60;2.42;;;29.00;47.00;;;;;;6185405;23;20016;-80
2023/05/31 10:44:16;;;;;;;4.78;2.92;;;29.20;47.70;;;;;;6186490;23;20028;-80
2023/05/31 10:46:46;;;;;;;9.20;2.92;;;29.20;46.60;;;;;;6186439;23;20005;-80
2023/05/31 10:49:15;;;;;;;4.18;2.20;;;29.20;47.00;;;;;;6185803;23;20455;-81
2023/05/31 10:51:44;;;;;;;3.03;2.50;;;29.30;47.10;;;;;;6187362;23;20452;-81
2023/05/31 10:54:20;;;;;;;4.72;2.72;;;29.50;47.30;;;;;;6186640;23;20085;-81
2023/05/31 10:56:55;;;;;;;3.65;2.50;;;29.60;46.50;;;;;;6186527;23;20057;-81
2023/05/31 10:59:22;;;;;;;5.82;3.10;;;29.70;47.40;;;;;;6160318;23;20028;-81
2023/05/31 11:01:48;;;;;;;3.70;2.60;;;29.90;47.00;;;;;;6186112;23;20072;-79
2023/05/31 11:04:25;;;;;;;2.85;2.38;;;30.00;47.10;;;;;;6186617;23;20029;-79
2023/05/31 11:07:11;;;;;;;6.35;3.42;;;30.20;46.00;;;;;;6186171;23;20084;-79
2023/05/31 11:09:39;;;;;;;6.20;2.72;;;30.30;43.70;;;;;;6160000;23;20005;-78
2023/05/31 11:12:05;;;;;;;5.45;2.63;;;30.30;45.50;;;;;;6185859;23;20013;-78
2023/05/31 11:14:32;;;;;;;3.90;2.95;;;30.50;45.40;;;;;;6186113;23;20338;-79
2023/05/31 11:17:04;;;;;;;6.95;2.80;;;30.50;44.50;;;;;;6186408;23;20049;-78
2023/05/31 11:19:31;;;;;;;6.47;3.30;;;30.70;44.50;;;;;;6159869;23;20308;-79
2023/05/31 11:22:05;;;;;;;6.55;3.00;;;30.70;44.20;;;;;;6160534;23;20009;-78
2023/05/31 11:24:37;;;;;;;4.28;2.70;;;30.70;43.70;;;;;;6186551;23;20533;-78
2023/05/31 11:27:05;;;;;;;3.60;2.80;;;30.80;45.00;;;;;;6186886;23;20005;-78
2023/05/31 11:29:48;;;;;;;10.85;2.80;;;31.00;45.10;;;;;;6185791;23;19997;-78
2023/05/31 11:32:14;;;;;;;5.72;3.00;;;31.30;44.60;;;;;;6186282;23;20071;-79
2023/05/31 11:34:53;;;;;;;4.93;2.97;;;31.60;44.80;;;;;;6160112;23;20029;-78
2023/05/31 11:37:23;;;;;;;11.60;3.55;;;31.90;43.70;;;;;;6186472;23;20084;-81
2023/05/31 11:39:49;;;;;;;6.82;3.22;;;32.20;43.20;;;;;;6187041;23;19997;-82
2023/05/31 11:42:15;;;;;;;6.35;3.03;;;32.50;43.20;;;;;;6186760;23;20008;-81
2023/05/31 11:44:46;;;;;;;6.60;3.25;;;32.80;43.00;;;;;;6159944;23;20033;-82
2023/05/31 11:47:18;;;;;;;6.05;3.33;;;33.10;42.30;;;;;;6186123;23;20423;-81
2023/05/31 11:49:47;;;;;;;5.88;2.88;;;33.30;42.70;;;;;;6160967;23;20001;-79
2023/05/31 11:52:18;;;;;;;4.40;3.47;;;33.50;42.40;;;;;;6186695;23;19997;-79
2023/05/31 11:54:47;;;;;;;5.43;2.85;;;33.80;41.90;;;;;;6160514;23;20004;-78
2023/05/31 11:57:16;;;;;;;5.28;2.72;;;33.90;41.80;;;;;;6187292;23;20041;-78
2023/05/31 11:59:43;;;;;;;4.43;3.00;;;34.00;41.20;;;;;;6186651;23;20001;-79
2023/05/31 12:02:10;;;;;;;6.35;2.92;;;34.10;41.70;;;;;;6187256;23;20009;-82
2023/05/31 12:04:41;;;;;;;5.47;2.90;;;34.10;40.90;;;;;;6186907;23;20052;-82
2023/05/31 12:07:19;;;;;;;5.22;3.47;;;34.20;39.40;;;;;;6186356;23;20076;-81
2023/05/31 12:09:46;;;;;;;4.40;2.90;;;34.20;39.90;;;;;;6185845;23;20001;-79
2023/05/31 12:12:12;;;;;;;5.07;3.40;;;34.30;40.00;;;;;;6176933;23;20157;-79
2023/05/31 12:14:48;;;;;;;4.18;3.20;;;34.20;39.40;;;;;;6216214;23;20367;-79
2023/05/31 12:17:14;;;;;;;4.55;2.72;;;34.30;39.60;;;;;;6216652;23;20008;-79
2023/05/31 12:19:40;;;;;;;4.68;3.30;;;34.20;39.90;;;;;;6216189;23;20080;-78
2023/05/31 12:22:05;;;;;;;5.85;3.20;;;34.20;40.60;;;;;;6216217;23;20028;-78
2023/05/31 12:24:31;;;;;;;4.32;2.83;;;34.30;40.50;;;;;;6216569;23;20000;-78
2023/05/31 12:26:57;;;;;;;3.75;3.17;;;34.40;40.10;;;;;;6216521;23;20005;-78
2023/05/31 12:29:30;;;;;;;5.57;3.20;;;34.40;40.30;;;;;;6216558;23;20773;-78
2023/05/31 12:32:06;;;;;;;6.13;3.70;;;34.60;40.30;;;;;;6215786;23;20001;-79
2023/05/31 12:34:36;;;;;;;5.38;3.15;;;34.60;39.10;;;;;;6216422;23;19996;-78
2023/05/31 12:37:06;;;;;;;4.93;2.63;;;34.60;39.60;;;;;;6215891;23;20063;-78
2023/05/31 12:39:33;;;;;;;4.45;3.10;;;34.60;39.60;;;;;;6215950;23;20008;-79
2023/05/31 12:42:00;;;;;;;9.25;3.25;;;34.60;39.90;;;;;;6215775;23;20015;-79
2023/05/31 12:44:27;;;;;;;8.10;3.30;;;34.70;39.70;;;;;;6216357;23;20011;-78
2023/05/31 12:46:59;;;;;;;6.25;3.25;;;34.70;39.90;;;;;;6215069;23;20011;-79
2023/05/31 12:49:37;;;;;;;7.30;3.20;;;34.80;40.60;;;;;;6215424;23;19997;-79
2023/05/31 12:52:04;;;;;;;5.28;3.15;;;34.80;40.20;;;;;;6215792;23;20004;-79